createdAt,value
2023-05-01T00:01:05.410Z,101398.63
2023-05-01T00:06:03.386Z,101396.78
2023-05-01T00:08:31.891Z,101388.78
2023-05-01T00:11:09.815Z,101399.47
2023-05-01T00:13:37.537Z,101399.34
2023-05-01T00:16:12.636Z,101400.06
2023-05-01T00:18:40.454Z,101402.63
2023-05-01T00:21:08.000Z,101393.72
2023-05-01T00:23:35.755Z,101392.78
2023-05-01T00:26:03.500Z,101391.06
2023-05-01T00:28:31.400Z,101389.22
2023-05-01T00:30:59.103Z,101397.41
2023-05-01T00:33:26.688Z,101390.22
2023-05-01T00:35:55.838Z,101392.88
2023-05-01T00:38:24.369Z,101396.66
2023-05-01T00:40:52.379Z,101398.50
2023-05-01T00:43:19.903Z,101398.50
2023-05-01T00:45:47.546Z,101392.16
2023-05-01T00:48:15.623Z,101396.66
2023-05-01T00:50:44.862Z,101389.72
2023-05-01T00:53:12.770Z,101388.88
2023-05-01T00:55:42.354Z,101385.50
2023-05-01T00:58:11.979Z,101388.16
2023-05-01T01:00:39.720Z,101391.09
2023-05-01T01:03:07.697Z,101390.34
2023-05-01T01:05:42.112Z,101389.63
2023-05-01T01:08:24.200Z,101389.13
2023-05-01T01:11:35.809Z,101390.22
2023-05-01T01:14:17.758Z,101386.69
2023-05-01T01:17:16.941Z,101385.13
2023-05-01T01:19:50.746Z,101385.84
2023-05-01T01:22:24.050Z,101391.22
2023-05-01T01:25:16.745Z,101390.38
2023-05-01T01:28:18.292Z,101387.78
2023-05-01T01:31:05.238Z,101384.28
2023-05-01T01:33:51.712Z,101378.19
2023-05-01T01:36:37.883Z,101385.25
2023-05-01T01:39:46.896Z,101381.00
2023-05-01T01:42:20.429Z,101369.41
2023-05-01T01:45:05.090Z,101369.66
2023-05-01T01:47:34.569Z,101364.53
2023-05-01T01:50:06.859Z,101361.88
2023-05-01T01:52:36.534Z,101363.81
2023-05-01T01:55:09.687Z,101371.97
2023-05-01T01:57:39.767Z,101357.84
2023-05-01T02:00:11.239Z,101354.34
2023-05-01T02:02:47.002Z,101360.53
2023-05-01T02:05:17.954Z,101356.88
2023-05-01T02:07:50.424Z,101353.34
2023-05-01T02:10:18.865Z,101363.19
2023-05-01T02:12:48.676Z,101355.19
2023-05-01T02:15:19.126Z,101346.44
2023-05-01T02:17:48.598Z,101344.00
2023-05-01T02:20:16.710Z,101344.00
2023-05-01T02:22:46.414Z,101357.63
2023-05-01T02:25:16.807Z,101354.22
2023-05-01T02:27:53.117Z,101346.44
2023-05-01T02:30:21.786Z,101352.75
2023-05-01T02:32:49.363Z,101354.59
2023-05-01T02:35:17.813Z,101344.75
2023-05-01T02:37:45.929Z,101343.88
2023-05-01T02:40:15.232Z,101342.16
2023-05-01T02:42:48.934Z,101339.50
2023-05-01T02:45:22.678Z,101343.88
2023-05-01T02:47:53.928Z,101333.19
2023-05-01T02:50:23.466Z,101334.88
2023-05-01T02:52:51.493Z,101340.47
2023-05-01T02:55:39.754Z,101343.16
2023-05-01T02:58:07.347Z,101341.22
2023-05-01T03:00:35.574Z,101338.41
2023-05-01T03:03:03.454Z,101340.84
2023-05-01T03:05:31.114Z,101344.34
2023-05-01T03:07:58.732Z,101344.34
2023-05-01T03:10:26.268Z,101344.25
2023-05-01T03:12:53.802Z,101353.22
2023-05-01T03:15:21.335Z,101353.97
2023-05-01T03:17:48.971Z,101355.66
2023-05-01T03:20:16.685Z,101358.56
2023-05-01T03:22:44.272Z,101357.03
2023-05-01T03:25:12.107Z,101357.97
2023-05-01T03:27:39.694Z,101363.44
2023-05-01T03:30:08.957Z,101362.47
2023-05-01T03:32:39.269Z,101364.16
2023-05-01T03:35:10.746Z,101365.03
2023-05-01T03:37:38.559Z,101359.06
2023-05-01T03:40:06.944Z,101356.75
2023-05-01T03:43:13.009Z,101363.66
2023-05-01T03:45:41.674Z,101364.50
2023-05-01T03:48:10.364Z,101360.59
2023-05-01T03:50:38.266Z,101365.44
2023-05-01T03:53:05.755Z,101364.84
2023-05-01T03:55:33.737Z,101372.97
2023-05-01T03:58:01.731Z,101376.50
2023-05-01T04:00:29.603Z,101371.03
2023-05-01T04:02:57.710Z,101376.25
2023-05-01T04:05:25.843Z,101376.25
2023-05-01T04:07:58.694Z,101367.16
2023-05-01T04:10:26.571Z,101367.88
2023-05-01T04:13:05.055Z,101364.13
2023-05-01T04:15:33.077Z,101365.09
2023-05-01T04:18:01.868Z,101363.38
2023-05-01T04:20:29.738Z,101367.16
2023-05-01T04:22:57.403Z,101370.78
2023-05-01T04:25:25.219Z,101375.81
2023-05-01T04:27:57.463Z,101365.81
2023-05-01T04:30:24.970Z,101364.75
2023-05-01T04:32:52.685Z,101365.47
2023-05-01T04:35:20.278Z,101369.75
2023-05-01T04:37:47.781Z,101360.84
2023-05-01T04:40:15.345Z,101365.97
2023-05-01T04:42:44.001Z,101368.41
2023-05-01T04:45:14.534Z,101369.25
2023-05-01T04:47:42.203Z,101365.00
2023-05-01T04:50:11.547Z,101372.06
2023-05-01T04:52:39.290Z,101365.25
2023-05-01T04:55:07.709Z,101375.09
2023-05-01T04:57:38.295Z,101367.91
2023-05-01T05:00:08.639Z,101364.28
2023-05-01T05:02:46.801Z,101377.63
2023-05-01T05:05:16.046Z,101372.06
2023-05-01T05:07:43.673Z,101379.94
2023-05-01T05:10:29.659Z,101374.59
2023-05-01T05:13:17.512Z,101375.47
2023-05-01T05:15:46.720Z,101377.91
2023-05-01T05:18:14.870Z,101381.44
2023-05-01T05:20:42.571Z,101386.41
2023-05-01T05:23:10.500Z,101381.44
2023-05-01T05:25:38.216Z,101382.78
2023-05-01T05:28:05.770Z,101382.28
2023-05-01T05:30:33.355Z,101386.28
2023-05-01T05:33:01.044Z,101386.78
2023-05-01T05:35:28.728Z,101379.06
2023-05-01T05:37:56.355Z,101387.69
2023-05-01T05:40:25.296Z,101386.47
2023-05-01T05:42:56.723Z,101391.44
2023-05-01T05:45:26.796Z,101389.38
2023-05-01T05:47:54.455Z,101400.56
2023-05-01T05:50:22.949Z,101396.66
2023-05-01T05:52:50.753Z,101396.41
2023-05-01T05:55:18.493Z,101399.22
2023-05-01T05:57:59.340Z,101400.91
2023-05-01T06:00:27.378Z,101400.69
2023-05-01T06:02:56.720Z,101404.19
2023-05-01T06:05:27.863Z,101405.78
2023-05-01T06:07:55.566Z,101410.88
2023-05-01T06:10:23.110Z,101403.59
2023-05-01T06:13:01.763Z,101406.75
2023-05-01T06:15:38.834Z,101402.66
2023-05-01T06:18:08.014Z,101407.53
2023-05-01T06:20:36.214Z,101407.94
2023-05-01T06:23:03.772Z,101414.84
2023-05-01T06:25:42.932Z,101420.03
2023-05-01T06:28:11.227Z,101419.69
2023-05-01T06:30:39.002Z,101418.50
2023-05-01T06:33:06.875Z,101414.50
2023-05-01T06:35:34.674Z,101420.97
2023-05-01T06:38:03.109Z,101417.19
2023-05-01T06:40:31.811Z,101418.63
2023-05-01T06:42:59.549Z,101430.91
2023-05-01T06:45:30.602Z,101426.53
2023-05-01T06:47:58.220Z,101424.97
2023-05-01T06:50:25.882Z,101430.31
2023-05-01T06:52:53.614Z,101436.66
2023-05-01T06:55:21.884Z,101436.66
2023-05-01T06:57:49.499Z,101442.75
2023-05-01T07:00:18.178Z,101443.72
2023-05-01T07:02:46.684Z,101448.69
2023-05-01T07:05:14.334Z,101445.75
2023-05-01T07:07:47.285Z,101446.34
2023-05-01T07:10:18.375Z,101448.19
2023-05-01T07:12:46.506Z,101450.88
2023-05-01T07:15:16.325Z,101450.75
2023-05-01T07:17:44.076Z,101455.25
2023-05-01T07:20:12.709Z,101459.91
2023-05-01T07:22:40.343Z,101456.38
2023-05-01T07:25:08.479Z,101461.84
2023-05-01T07:27:36.266Z,101466.34
2023-05-01T07:30:05.319Z,101471.47
2023-05-01T07:32:33.246Z,101465.59
2023-05-01T07:35:00.920Z,101475.22
2023-05-01T07:37:28.882Z,101477.09
2023-05-01T07:39:58.440Z,101477.69
2023-05-01T07:42:29.470Z,101471.63
2023-05-01T07:44:57.062Z,101483.50
2023-05-01T07:47:24.723Z,101486.19
2023-05-01T07:49:52.295Z,101484.41
2023-05-01T07:52:19.887Z,101498.88
2023-05-01T07:54:54.268Z,101498.91
2023-05-01T07:57:23.407Z,101498.38
2023-05-01T07:59:58.209Z,101495.41
2023-05-01T08:02:26.201Z,101497.50
2023-05-01T08:04:54.154Z,101503.16
2023-05-01T08:07:21.823Z,101505.44
2023-05-01T08:09:49.424Z,101508.16
2023-05-01T08:12:16.920Z,101502.97
2023-05-01T08:14:44.580Z,101507.81
2023-05-01T08:17:12.159Z,101513.44
2023-05-01T08:19:39.696Z,101520.38
2023-05-01T08:22:07.279Z,101529.28
2023-05-01T08:24:34.818Z,101534.13
2023-05-01T08:27:02.832Z,101525.81
2023-05-01T08:29:30.838Z,101530.25
2023-05-01T08:31:58.952Z,101533.41
2023-05-01T08:34:26.911Z,101536.22
2023-05-01T08:36:54.585Z,101540.75
2023-05-01T08:39:22.159Z,101540.63
2023-05-01T08:41:50.138Z,101546.13
2023-05-01T08:44:19.730Z,101545.00
2023-05-01T08:46:51.014Z,101544.16
2023-05-01T08:49:22.158Z,101541.63
2023-05-01T08:51:53.016Z,101549.41
2023-05-01T08:54:21.357Z,101549.13
2023-05-01T08:56:51.712Z,101556.88
2023-05-01T08:59:20.634Z,101554.09
2023-05-01T09:01:48.651Z,101551.72
2023-05-01T09:04:17.412Z,101561.38
2023-05-01T09:06:45.445Z,101569.91
2023-05-01T09:09:13.160Z,101561.66
2023-05-01T09:11:41.172Z,101570.56
2023-05-01T09:14:09.321Z,101577.13
2023-05-01T09:16:37.050Z,101571.94
2023-05-01T09:19:04.794Z,101579.75
2023-05-01T09:21:32.542Z,101573.06
2023-05-01T09:24:00.644Z,101581.13
2023-05-01T09:26:28.223Z,101581.13
2023-05-01T09:28:59.773Z,101582.69
2023-05-01T09:31:29.928Z,101575.38
2023-05-01T09:33:59.446Z,101586.22
2023-05-01T09:36:29.875Z,101579.50
2023-05-01T09:38:58.491Z,101590.13
2023-05-01T09:41:27.074Z,101588.72
2023-05-01T09:43:58.072Z,101589.44
2023-05-01T09:46:27.074Z,101590.78
2023-05-01T09:48:59.988Z,101585.50
2023-05-01T09:51:33.104Z,101586.00
2023-05-01T09:54:02.858Z,101596.84
2023-05-01T09:56:32.003Z,101602.41
2023-05-01T09:59:18.098Z,101596.13
2023-05-01T10:01:48.202Z,101608.00
2023-05-01T10:04:16.063Z,101600.09
2023-05-01T10:06:43.704Z,101605.66
2023-05-01T10:09:17.627Z,101602.88
2023-05-01T10:11:49.891Z,101602.28
2023-05-01T10:14:17.557Z,101610.31
2023-05-01T10:22:02.654Z,101615.59
2023-05-01T10:24:32.222Z,101618.31
2023-05-01T10:27:01.244Z,101615.94
2023-05-01T10:29:31.605Z,101617.72
2023-05-01T10:32:01.047Z,101612.25
2023-05-01T10:34:29.347Z,101619.72
2023-05-01T10:37:04.820Z,101620.13
2023-05-01T10:39:36.254Z,101631.53
2023-05-01T10:42:16.760Z,101630.38
2023-05-01T10:44:48.007Z,101635.47
2023-05-01T10:48:20.444Z,101641.25
2023-05-01T10:51:26.643Z,101639.91
2023-05-01T10:54:13.960Z,101644.16
2023-05-01T10:56:43.597Z,101642.00
2023-05-01T10:59:13.080Z,101650.66
2023-05-01T11:06:02.957Z,101643.13
2023-05-01T11:08:38.301Z,101650.25
2023-05-01T11:15:40.749Z,101655.75
2023-05-01T11:18:08.977Z,101661.16
2023-05-01T11:20:36.635Z,101662.66
2023-05-01T11:23:04.264Z,101658.72
2023-05-01T11:25:33.173Z,101660.25
2023-05-01T11:28:02.576Z,101653.13
2023-05-01T11:30:40.521Z,101656.09
2023-05-01T11:33:10.729Z,101663.47
2023-05-01T11:35:39.356Z,101662.41
2023-05-01T11:38:16.425Z,101657.47
2023-05-01T11:40:44.353Z,101658.16
2023-05-01T11:43:12.768Z,101660.19
2023-05-01T11:45:40.673Z,101657.03
2023-05-01T11:48:17.143Z,101657.19
2023-05-01T11:50:44.746Z,101663.31
2023-05-01T11:53:17.742Z,101667.31
2023-05-01T11:55:45.795Z,101661.59
2023-05-01T11:58:13.527Z,101668.28
2023-05-01T12:00:42.936Z,101673.28
2023-05-01T12:03:12.662Z,101673.00
2023-05-01T12:05:43.286Z,101676.84
2023-05-01T12:08:21.939Z,101670.53
2023-05-01T12:10:56.290Z,101660.91
2023-05-01T12:13:27.092Z,101656.31
2023-05-01T12:15:56.252Z,101659.94
2023-05-01T12:18:24.148Z,101658.50
2023-05-01T12:20:56.857Z,101654.72
2023-05-01T12:23:37.440Z,101655.94
2023-05-01T12:26:19.100Z,101648.16
2023-05-01T12:28:55.580Z,101655.53
2023-05-01T12:31:23.779Z,101647.53
2023-05-01T12:33:59.439Z,101646.69
2023-05-01T12:36:29.001Z,101645.75
2023-05-01T12:39:02.950Z,101642.03
2023-05-01T12:41:38.358Z,101640.19
2023-05-01T12:48:15.003Z,101637.84
2023-05-01T12:50:43.984Z,101644.75
2023-05-01T12:53:12.660Z,101638.78
2023-05-01T12:55:48.304Z,101637.16
2023-05-01T12:58:16.543Z,101634.47
2023-05-01T13:00:52.489Z,101640.78
2023-05-01T13:03:25.270Z,101638.34
2023-05-01T13:05:57.968Z,101646.50
2023-05-01T13:08:33.440Z,101653.22
2023-05-01T13:11:09.715Z,101659.75
2023-05-01T13:13:37.762Z,101661.81
2023-05-01T13:16:05.652Z,101666.06
2023-05-01T13:18:34.403Z,101661.88
2023-05-01T13:21:10.104Z,101660.72
2023-05-01T13:23:39.134Z,101659.84
2023-05-01T13:26:11.203Z,101660.72
2023-05-01T13:28:45.652Z,101660.84
2023-05-01T13:31:17.237Z,101665.22
2023-05-01T13:33:44.885Z,101667.16
2023-05-01T13:36:25.133Z,101662.56
2023-05-01T13:38:57.024Z,101655.41
2023-05-01T13:41:26.345Z,101651.59
2023-05-01T13:43:56.407Z,101660.09
2023-05-01T13:46:27.403Z,101665.16
2023-05-01T13:48:55.465Z,101664.81
2023-05-01T13:51:25.287Z,101653.69
2023-05-01T13:53:54.184Z,101651.78
2023-05-01T13:56:22.306Z,101655.75
2023-05-01T13:58:50.691Z,101649.03
2023-05-01T14:01:24.017Z,101645.84
2023-05-01T14:03:52.144Z,101650.50
2023-05-01T14:06:21.373Z,101661.88
2023-05-01T14:08:51.111Z,101653.00
2023-05-01T14:11:20.155Z,101667.31
2023-05-01T14:13:51.013Z,101678.63
2023-05-01T14:16:27.080Z,101693.06
2023-05-01T14:18:57.282Z,101680.88
2023-05-01T14:21:30.142Z,101691.28
2023-05-01T14:23:58.587Z,101680.09
2023-05-01T14:26:26.380Z,101690.53
2023-05-01T14:28:54.761Z,101700.38
2023-05-01T14:31:27.758Z,101706.28
2023-05-01T14:34:00.483Z,101709.56
2023-05-01T14:36:34.061Z,101707.00
2023-05-01T14:39:04.159Z,101713.28
2023-05-01T14:41:32.235Z,101716.81
2023-05-01T14:44:02.132Z,101718.72
2023-05-01T14:46:31.943Z,101727.34
2023-05-01T14:49:01.101Z,101727.78
2023-05-01T14:51:32.265Z,101719.88
2023-05-01T14:54:00.401Z,101733.44
2023-05-01T14:56:28.186Z,101741.41
2023-05-01T14:58:55.856Z,101745.09
2023-05-01T15:02:21.034Z,101757.09
2023-05-01T15:04:49.040Z,101750.19
2023-05-01T15:07:17.312Z,101739.94
2023-05-01T15:09:46.523Z,101753.47
2023-05-01T15:12:14.109Z,101751.38
2023-05-01T15:14:41.637Z,101762.72
2023-05-01T15:17:09.227Z,101751.91
2023-05-01T15:19:37.484Z,101760.53
2023-05-01T15:22:05.073Z,101764.22
2023-05-01T15:24:32.621Z,101769.19
2023-05-01T15:27:00.577Z,101759.22
2023-05-01T15:29:28.228Z,101763.56
2023-05-01T15:32:08.189Z,101762.53
2023-05-01T15:34:39.570Z,101776.00
2023-05-01T15:37:07.460Z,101775.59
2023-05-01T15:39:35.070Z,101793.22
2023-05-01T15:42:02.646Z,101781.19
2023-05-01T15:44:31.946Z,101793.13
2023-05-01T15:46:59.508Z,101796.41
2023-05-01T15:49:27.036Z,101795.09
2023-05-01T15:51:55.206Z,101797.97
2023-05-01T15:54:22.797Z,101792.88
2023-05-01T15:56:50.375Z,101792.19
2023-05-01T15:59:17.892Z,101797.44
2023-05-01T16:01:45.768Z,101804.88
2023-05-01T16:04:13.586Z,101801.91
2023-05-01T16:06:42.250Z,101813.25
2023-05-01T16:09:10.893Z,101825.88
2023-05-01T16:11:38.586Z,101821.44
2023-05-01T16:14:12.735Z,101822.28
2023-05-01T16:16:42.274Z,101820.28
2023-05-01T16:19:16.169Z,101830.06
2023-05-01T16:21:44.085Z,101825.38
2023-05-01T16:24:12.401Z,101825.34
2023-05-01T16:26:41.552Z,101836.94
2023-05-01T16:29:11.260Z,101844.84
2023-05-01T16:31:44.881Z,101844.78
2023-05-01T16:34:23.793Z,101848.19
2023-05-01T16:36:51.499Z,101864.84
2023-05-01T16:39:22.712Z,101855.31
2023-05-01T17:04:41.696Z,101900.81
2023-05-01T17:20:20.111Z,101904.25
2023-05-01T17:22:47.716Z,101912.41
2023-05-01T17:25:15.410Z,101915.84
2023-05-01T17:27:43.112Z,101917.59
2023-05-01T17:30:10.932Z,101923.38
2023-05-01T17:32:38.699Z,101922.00
2023-05-01T17:35:19.382Z,101926.59
2023-05-01T17:42:59.488Z,101935.59
2023-05-01T17:45:27.207Z,101935.16
2023-05-01T17:47:56.331Z,101939.03
2023-05-01T18:03:40.806Z,101974.22
2023-05-01T18:13:54.799Z,101984.78
2023-05-01T18:16:24.832Z,101971.31
2023-05-01T18:19:01.693Z,101977.09
2023-05-01T18:21:29.440Z,101990.66
2023-05-01T18:23:57.045Z,101986.28
2023-05-01T18:26:26.634Z,102000.72
2023-05-01T18:29:00.810Z,101999.97
2023-05-01T18:31:28.529Z,102007.53
2023-05-01T18:33:56.353Z,102016.19
2023-05-01T18:36:23.946Z,102012.22
2023-05-01T18:43:39.449Z,102024.69
2023-05-01T18:46:07.179Z,102022.41
2023-05-01T18:48:34.954Z,102028.28
2023-05-01T18:53:34.671Z,102039.03
2023-05-01T18:56:02.339Z,102050.50
2023-05-01T18:58:30.262Z,102031.78
2023-05-01T19:00:57.832Z,102035.31
2023-05-01T19:03:25.746Z,102036.81
2023-05-01T19:05:53.271Z,102040.06
2023-05-01T19:08:20.977Z,102043.41
2023-05-01T19:10:48.486Z,102047.53
2023-05-01T19:13:16.666Z,102050.03
2023-05-01T19:15:44.248Z,102048.41
2023-05-01T19:18:12.051Z,102049.47
2023-05-01T19:20:39.728Z,102053.97
2023-05-01T19:23:07.265Z,102054.16
2023-05-01T19:25:35.988Z,102065.03
2023-05-01T19:28:03.891Z,102078.38
2023-05-01T19:30:31.821Z,102076.75
2023-05-01T19:32:59.998Z,102081.78
2023-05-01T19:35:27.707Z,102088.66
2023-05-01T19:37:59.309Z,102082.25
2023-05-01T19:40:26.923Z,102074.25
2023-05-01T19:42:54.520Z,102082.91
2023-05-01T19:45:22.281Z,102085.50
2023-05-01T19:47:49.846Z,102091.50
2023-05-01T19:50:21.163Z,102100.88
2023-05-01T19:52:48.729Z,102105.63
2023-05-01T19:55:17.106Z,102111.06
2023-05-01T19:57:44.967Z,102112.97
2023-05-01T20:00:13.000Z,102121.94
2023-05-01T20:02:41.701Z,102128.44
2023-05-01T20:05:53.336Z,102121.66
2023-05-01T20:08:20.980Z,102118.31
2023-05-01T20:10:48.440Z,102136.41
2023-05-01T20:13:16.064Z,102140.88
2023-05-01T20:15:43.603Z,102139.84
2023-05-01T20:18:13.298Z,102137.25
2023-05-01T20:20:41.062Z,102143.44
2023-05-01T20:23:40.486Z,102138.38
2023-05-01T20:30:43.779Z,102162.50
2023-05-01T20:33:11.892Z,102167.13
2023-05-01T20:35:39.585Z,102162.66
2023-05-01T20:38:07.232Z,102162.50
2023-05-01T20:40:40.030Z,102168.75
2023-05-01T20:43:08.003Z,102170.56
2023-05-01T20:45:35.582Z,102176.00
2023-05-01T20:48:03.506Z,102169.53
2023-05-01T20:50:31.488Z,102176.75
2023-05-01T20:52:59.112Z,102184.03
2023-05-01T20:55:28.135Z,102190.38
2023-05-01T20:57:56.069Z,102190.63
2023-05-01T21:00:29.379Z,102187.97
2023-05-01T21:26:48.832Z,102209.22
2023-05-01T21:29:16.463Z,102208.44
2023-05-01T21:31:44.088Z,102220.06
2023-05-01T21:34:11.933Z,102217.31
2023-05-01T21:36:45.153Z,102229.78
2023-05-01T21:39:13.006Z,102222.63
2023-05-01T21:46:10.714Z,102226.34
2023-05-01T21:48:52.068Z,102236.16
2023-05-01T21:51:27.618Z,102236.94
2023-05-01T21:53:55.649Z,102232.28
2023-05-01T21:56:23.649Z,102238.47
2023-05-01T21:58:54.222Z,102242.78
2023-05-01T22:01:23.500Z,102239.50
2023-05-01T22:03:51.705Z,102239.00
2023-05-01T22:06:19.379Z,102252.50
2023-05-01T22:08:47.018Z,102248.13
2023-05-01T22:11:14.552Z,102251.75
2023-05-01T22:13:42.071Z,102254.31
2023-05-01T22:16:21.542Z,102254.56
2023-05-01T22:18:50.605Z,102263.44
2023-05-01T22:21:18.283Z,102260.75
2023-05-01T22:23:45.854Z,102268.84
2023-05-01T22:26:16.101Z,102262.66
2023-05-01T22:29:08.443Z,102259.06
2023-05-01T22:31:36.224Z,102262.66
2023-05-01T22:34:03.739Z,102262.56
2023-05-01T22:36:31.527Z,102266.00
2023-05-01T22:38:59.021Z,102262.56
2023-05-01T22:41:26.801Z,102261.72
2023-05-01T22:43:54.445Z,102262.75
2023-05-01T22:46:23.000Z,102272.09
2023-05-01T22:48:50.611Z,102269.59
2023-05-01T22:51:18.263Z,102270.63
2023-05-01T22:53:46.575Z,102267.97
2023-05-01T22:56:14.182Z,102279.50
2023-05-01T22:58:42.788Z,102273.22
2023-05-01T23:01:10.479Z,102287.69
2023-05-01T23:03:39.099Z,102278.72
2023-05-01T23:06:07.072Z,102286.03
2023-05-01T23:08:34.742Z,102292.22
2023-05-01T23:11:02.371Z,102292.31
2023-05-01T23:13:32.261Z,102295.84
2023-05-01T23:15:59.899Z,102290.50
2023-05-01T23:18:33.195Z,102294.03
2023-05-01T23:21:00.943Z,102289.66
2023-05-01T23:23:34.723Z,102288.78
2023-05-01T23:26:02.359Z,102296.53
2023-05-01T23:28:30.504Z,102298.34
2023-05-01T23:31:00.675Z,102293.00
2023-05-01T23:33:37.972Z,102302.09
2023-05-01T23:36:12.920Z,102296.88
2023-05-01T23:38:40.635Z,102304.06
2023-05-01T23:41:08.385Z,102304.22
2023-05-01T23:43:37.988Z,102312.22
2023-05-01T23:46:07.639Z,102302.41
2023-05-01T23:48:36.008Z,102306.03
2023-05-01T23:51:03.748Z,102308.53
2023-05-01T23:53:31.554Z,102309.50
2023-05-01T23:55:59.324Z,102312.38
2023-05-01T23:58:26.846Z,102305.50
